^^
Station Historical Data
Daily Summary for February 2, 2017 Units:  Both    English   Metric
« Previous Day
Next Day »
Daily Weekly Monthly Yearly Custom
  High: Low: Average:
Temperature: 87.6 °F /  30.9 °C 64.2 °F /  17.9 °C 71 °F /  21.7 °C
Dew Point: 64.8 °F /  18.2 °C 56.3 °F /  13.5 °C 59.8 °F /  15.4 °C
Humidity: 88% 36% 70%
Wind Speed: 16.1mph /  25.9km/h - 2mph /  3.2km/h
Wind Gust: 24.0mph /  38.6km/h - -
Wind- - SE
Pressure: 29.75 in /  1007.3 hPa 29.56 in /  1000.9 hPa -
Precipitation: 0.13 in /  3.3 mm    
Historical Graphs
 
 
Tabular Data for February 2, 2017
Time Temperature Dew Point Pressure Wind Wind Speed Wind Gust Humidity Rainfall Rate (Hourly) solar Conditions
00:04 69.6 °F /  20.9 °C 59.7 °F /  15.4 °C 29.68in /  1005hPa North 4.0mph /  6.4km/h 4.0mph /  6.4km/h 71% 0.00in /  0mm 0.0 W/m2
00:10 69.6 °F /  20.9 °C 60.3 °F /  15.7 °C 29.67in /  1004.6hPa North 2.0mph /  3.2km/h 4.0mph /  6.4km/h 72% 0.00in /  0mm 0.0 W/m2
00:16 69.6 °F /  20.9 °C 60.3 °F /  15.7 °C 29.67in /  1004.6hPa Calm   5.0mph /  8km/h 72% 0.00in /  0mm 0.0 W/m2
00:22 69.6 °F /  20.9 °C 60.3 °F /  15.7 °C 29.67in /  1004.6hPa Calm   1.0mph /  1.6km/h 72% 0.00in /  0mm 0.0 W/m2
00:28 69.4 °F /  20.8 °C 60.4 °F /  15.8 °C 29.67in /  1004.6hPa Calm   4.0mph /  6.4km/h 73% 0.00in /  0mm 0.0 W/m2
00:34 69.4 °F /  20.8 °C 60.4 °F /  15.8 °C 29.67in /  1004.6hPa NNW 0.9mph /  1.4km/h 3.0mph /  4.8km/h 73% 0.00in /  0mm 0.0 W/m2
00:40 69.3 °F /  20.7 °C 60.3 °F /  15.7 °C 29.66in /  1004.3hPa Calm   1.0mph /  1.6km/h 73% 0.00in /  0mm 0.0 W/m2
00:47 69.3 °F /  20.7 °C 60.6 °F /  15.9 °C 29.67in /  1004.6hPa Calm   2.0mph /  3.2km/h 74% 0.00in /  0mm 0.0 W/m2
00:53 69.3 °F /  20.7 °C 60.6 °F /  15.9 °C 29.66in /  1004.3hPa Calm   1.0mph /  1.6km/h 74% 0.00in /  0mm 0.0 W/m2
00:59 69.1 °F /  20.6 °C 60.4 °F /  15.8 °C 29.66in /  1004.3hPa North 0.9mph /  1.4km/h 2.0mph /  3.2km/h 74% 0.00in /  0mm 0.0 W/m2
01:05 69.1 °F /  20.6 °C 60.8 °F /  16 °C 29.66in /  1004.3hPa Calm   1.0mph /  1.6km/h 75% 0.00in /  0mm 0.0 W/m2
01:11 68.9 °F /  20.5 °C 60.6 °F /  15.9 °C 29.67in /  1004.6hPa Calm   2.0mph /  3.2km/h 75% 0.00in /  0mm 0.0 W/m2
01:17 68.9 °F /  20.5 °C 61.0 °F /  16.1 °C 29.66in /  1004.3hPa Calm   1.0mph /  1.6km/h 76% 0.00in /  0mm 0.0 W/m2
01:24 68.7 °F /  20.4 °C 60.8 °F /  16 °C 29.66in /  1004.3hPa Calm   1.0mph /  1.6km/h 76% 0.00in /  0mm 0.0 W/m2
01:30 68.7 °F /  20.4 °C 60.8 °F /  16 °C 29.66in /  1004.3hPa Calm     76% 0.00in /  0mm 0.0 W/m2
01:36 68.7 °F /  20.4 °C 60.8 °F /  16 °C 29.66in /  1004.3hPa Calm     76% 0.00in /  0mm 0.0 W/m2
01:42 68.7 °F /  20.4 °C 60.8 °F /  16 °C 29.66in /  1004.3hPa Calm   1.0mph /  1.6km/h 76% 0.00in /  0mm 0.0 W/m2
01:48 68.7 °F /  20.4 °C 60.8 °F /  16 °C 29.66in /  1004.3hPa Calm     76% 0.00in /  0mm 0.0 W/m2
01:54 68.7 °F /  20.4 °C 60.4 °F /  15.8 °C 29.66in /  1004.3hPa West 2.0mph /  3.2km/h 2.0mph /  3.2km/h 75% 0.00in /  0mm 0.0 W/m2
02:00 68.7 °F /  20.4 °C 60.4 °F /  15.8 °C 29.65in /  1003.9hPa Calm   1.0mph /  1.6km/h 75% 0.00in /  0mm 0.0 W/m2
02:06 68.7 °F /  20.4 °C 60.8 °F /  16 °C 29.65in /  1003.9hPa Calm   1.0mph /  1.6km/h 76% 0.00in /  0mm 0.0 W/m2
02:12 68.7 °F /  20.4 °C 60.8 °F /  16 °C 29.65in /  1003.9hPa Calm   1.0mph /  1.6km/h 76% 0.00in /  0mm 0.0 W/m2
02:19 68.7 °F /  20.4 °C 60.8 °F /  16 °C 29.65in /  1003.9hPa Calm   1.0mph /  1.6km/h 76% 0.00in /  0mm 0.0 W/m2
02:25 68.7 °F /  20.4 °C 60.8 °F /  16 °C 29.65in /  1003.9hPa Calm     76% 0.00in /  0mm 0.0 W/m2
02:31 68.7 °F /  20.4 °C 60.8 °F /  16 °C 29.65in /  1003.9hPa Calm     76% 0.00in /  0mm 0.0 W/m2
02:37 68.7 °F /  20.4 °C 60.8 °F /  16 °C 29.64in /  1003.6hPa Calm   3.0mph /  4.8km/h 76% 0.00in /  0mm 0.0 W/m2
02:43 68.7 °F /  20.4 °C 60.8 °F /  16 °C 29.64in /  1003.6hPa WNW 0.9mph /  1.4km/h 1.0mph /  1.6km/h 76% 0.00in /  0mm 0.0 W/m2
02:49 68.7 °F /  20.4 °C 60.8 °F /  16 °C 29.64in /  1003.6hPa Calm   1.0mph /  1.6km/h 76% 0.00in /  0mm 0.0 W/m2
02:55 68.5 °F /  20.3 °C 60.6 °F /  15.9 °C 29.63in /  1003.3hPa Calm   3.0mph /  4.8km/h 76% 0.00in /  0mm 0.0 W/m2
03:02 68.5 °F /  20.3 °C 60.6 °F /  15.9 °C 29.63in /  1003.3hPa Calm     76% 0.00in /  0mm 0.0 W/m2
03:08 68.4 °F /  20.2 °C 60.4 °F /  15.8 °C 29.63in /  1003.3hPa Calm     76% 0.00in /  0mm 0.0 W/m2
03:14 68.4 °F /  20.2 °C 60.8 °F /  16 °C 29.64in /  1003.6hPa Calm     77% 0.00in /  0mm 0.0 W/m2
03:20 68.4 °F /  20.2 °C 60.8 °F /  16 °C 29.63in /  1003.3hPa Calm   1.0mph /  1.6km/h 77% 0.00in /  0mm 0.0 W/m2
03:26 68.2 °F /  20.1 °C 60.6 °F /  15.9 °C 29.63in /  1003.3hPa Calm   1.0mph /  1.6km/h 77% 0.00in /  0mm 0.0 W/m2
03:32 67.8 °F /  19.9 °C 60.6 °F /  15.9 °C 29.63in /  1003.3hPa Calm   2.0mph /  3.2km/h 78% 0.00in /  0mm 0.0 W/m2
03:38 67.8 °F /  19.9 °C 60.6 °F /  15.9 °C 29.63in /  1003.3hPa ENE 0.9mph /  1.4km/h 2.0mph /  3.2km/h 78% 0.00in /  0mm 0.0 W/m2
03:45 67.6 °F /  19.8 °C 60.6 °F /  15.9 °C 29.63in /  1003.3hPa Calm   2.0mph /  3.2km/h 78% 0.00in /  0mm 0.0 W/m2
03:51 67.5 °F /  19.7 °C 60.8 °F /  16 °C 29.63in /  1003.3hPa Calm     79% 0.00in /  0mm 0.0 W/m2
03:57 67.3 °F /  19.6 °C 60.6 °F /  15.9 °C 29.63in /  1003.3hPa Calm   1.0mph /  1.6km/h 79% 0.00in /  0mm 0.0 W/m2
04:03 67.3 °F /  19.6 °C 60.6 °F /  15.9 °C 29.63in /  1003.3hPa Calm     79% 0.00in /  0mm 0.0 W/m2
04:09 67.1 °F /  19.5 °C 60.4 °F /  15.8 °C 29.63in /  1003.3hPa Calm     79% 0.00in /  0mm 0.0 W/m2
04:15 66.9 °F /  19.4 °C 60.6 °F /  15.9 °C 29.63in /  1003.3hPa Calm   1.0mph /  1.6km/h 80% 0.00in /  0mm 0.0 W/m2
04:21 66.7 °F /  19.3 °C 60.4 °F /  15.8 °C 29.63in /  1003.3hPa Calm   1.0mph /  1.6km/h 80% 0.00in /  0mm 0.0 W/m2
04:28 66.7 °F /  19.3 °C 60.4 °F /  15.8 °C 29.63in /  1003.3hPa Calm     80% 0.00in /  0mm 0.0 W/m2
04:34 66.6 °F /  19.2 °C 60.3 °F /  15.7 °C 29.63in /  1003.3hPa Calm   2.0mph /  3.2km/h 80% 0.00in /  0mm 0.0 W/m2
04:40 66.6 °F /  19.2 °C 60.6 °F /  15.9 °C 29.63in /  1003.3hPa East 2.0mph /  3.2km/h 2.0mph /  3.2km/h 81% 0.00in /  0mm 0.0 W/m2
04:46 66.4 °F /  19.1 °C 60.4 °F /  15.8 °C 29.63in /  1003.3hPa Calm   1.0mph /  1.6km/h 81% 0.00in /  0mm 0.0 W/m2
04:52 66.2 °F /  19 °C 60.3 °F /  15.7 °C 29.63in /  1003.3hPa Calm   1.0mph /  1.6km/h 81% 0.00in /  0mm 0.0 W/m2
04:58 66.0 °F /  18.9 °C 60.1 °F /  15.6 °C 29.64in /  1003.6hPa Calm   1.0mph /  1.6km/h 81% 0.00in /  0mm 0.0 W/m2
05:04 65.8 °F /  18.8 °C 59.9 °F /  15.5 °C 29.64in /  1003.6hPa Calm   1.0mph /  1.6km/h 81% 0.00in /  0mm 0.0 W/m2
05:11 65.8 °F /  18.8 °C 60.3 °F /  15.7 °C 29.64in /  1003.6hPa Calm   1.0mph /  1.6km/h 82% 0.00in /  0mm 0.0 W/m2
05:17 65.7 °F /  18.7 °C 60.1 °F /  15.6 °C 29.64in /  1003.6hPa Calm   1.0mph /  1.6km/h 82% 0.00in /  0mm 0.0 W/m2
05:23 65.5 °F /  18.6 °C 59.9 °F /  15.5 °C 29.63in /  1003.3hPa Calm     82% 0.00in /  0mm 0.0 W/m2
05:29 65.3 °F /  18.5 °C 59.7 °F /  15.4 °C 29.64in /  1003.6hPa Calm     82% 0.00in /  0mm 0.0 W/m2
05:35 65.1 °F /  18.4 °C 59.9 °F /  15.5 °C 29.64in /  1003.6hPa Calm     83% 0.00in /  0mm 0.0 W/m2
05:41 64.9 °F /  18.3 °C 59.7 °F /  15.4 °C 29.65in /  1003.9hPa Calm     83% 0.00in /  0mm 0.0 W/m2
05:47 64.9 °F /  18.3 °C 59.7 °F /  15.4 °C 29.64in /  1003.6hPa Calm     83% 0.00in /  0mm 0.0 W/m2
05:54 64.8 °F /  18.2 °C 59.5 °F /  15.3 °C 29.65in /  1003.9hPa Calm     83% 0.00in /  0mm 0.0 W/m2
06:00 64.8 °F /  18.2 °C 59.5 °F /  15.3 °C 29.65in /  1003.9hPa Calm     83% 0.00in /  0mm 0.0 W/m2
06:06 64.6 °F /  18.1 °C 59.7 °F /  15.4 °C 29.65in /  1003.9hPa Calm     84% 0.00in /  0mm 0.0 W/m2
06:12 64.6 °F /  18.1 °C 59.7 °F /  15.4 °C 29.65in /  1003.9hPa Calm     84% 0.00in /  0mm 0.0 W/m2
06:18 64.4 °F /  18 °C 59.5 °F /  15.3 °C 29.66in /  1004.3hPa Calm     84% 0.00in /  0mm 0.0 W/m2
06:24 64.2 °F /  17.9 °C 59.4 °F /  15.2 °C 29.66in /  1004.3hPa Calm     84% 0.00in /  0mm 0.0 W/m2
06:30 64.2 °F /  17.9 °C 59.4 °F /  15.2 °C 29.66in /  1004.3hPa East 2.0mph /  3.2km/h 2.0mph /  3.2km/h 84% 0.00in /  0mm 0.0 W/m2
06:36 64.2 °F /  17.9 °C 59.4 °F /  15.2 °C 29.67in /  1004.6hPa Calm   2.0mph /  3.2km/h 84% 0.00in /  0mm 5.0 W/m2
06:43 64.2 °F /  17.9 °C 59.4 °F /  15.2 °C 29.67in /  1004.6hPa ESE 0.9mph /  1.4km/h 1.0mph /  1.6km/h 84% 0.00in /  0mm 11.0 W/m2
06:49 64.2 °F /  17.9 °C 59.4 °F /  15.2 °C 29.67in /  1004.6hPa East 2.0mph /  3.2km/h 2.0mph /  3.2km/h 84% 0.00in /  0mm 19.0 W/m2
06:55 64.6 °F /  18.1 °C 59.7 °F /  15.4 °C 29.68in /  1005hPa Calm   1.0mph /  1.6km/h 84% 0.00in /  0mm 25.0 W/m2
07:01 64.6 °F /  18.1 °C 59.7 °F /  15.4 °C 29.68in /  1005hPa Calm   2.0mph /  3.2km/h 84% 0.00in /  0mm 28.0 W/m2
07:07 64.8 °F /  18.2 °C 59.9 °F /  15.5 °C 29.68in /  1005hPa Calm   4.0mph /  6.4km/h 84% 0.00in /  0mm 40.0 W/m2
07:13 65.1 °F /  18.4 °C 60.1 °F /  15.6 °C 29.68in /  1005hPa NE 0.9mph /  1.4km/h 4.0mph /  6.4km/h 84% 0.00in /  0mm 33.0 W/m2
07:19 65.5 °F /  18.6 °C 60.3 °F /  15.7 °C 29.68in /  1005hPa East 0.9mph /  1.4km/h 3.0mph /  4.8km/h 83% 0.00in /  0mm 25.0 W/m2
07:25 65.8 °F /  18.8 °C 59.9 °F /  15.5 °C 29.69in /  1005.3hPa NE 0.9mph /  1.4km/h 3.0mph /  4.8km/h 81% 0.00in /  0mm 23.0 W/m2
07:32 66.2 °F /  19 °C 60.3 °F /  15.7 °C 29.69in /  1005.3hPa East 2.9mph /  4.7km/h 4.0mph /  6.4km/h 81% 0.00in /  0mm 23.0 W/m2
07:38 66.6 °F /  19.2 °C 60.3 °F /  15.7 °C 29.69in /  1005.3hPa NE 0.9mph /  1.4km/h 6.0mph /  9.7km/h 80% 0.00in /  0mm 25.0 W/m2
07:44 66.6 °F /  19.2 °C 60.6 °F /  15.9 °C 29.70in /  1005.6hPa ENE 2.0mph /  3.2km/h 6.0mph /  9.7km/h 81% 0.00in /  0mm 35.0 W/m2
07:50 66.7 °F /  19.3 °C 60.8 °F /  16 °C 29.70in /  1005.6hPa NNE 0.9mph /  1.4km/h 7.0mph /  11.3km/h 81% 0.00in /  0mm 200.0 W/m2
07:56 66.7 °F /  19.3 °C 60.8 °F /  16 °C 29.70in /  1005.6hPa ESE 6.9mph /  11.1km/h 8.0mph /  12.9km/h 81% 0.00in /  0mm 70.0 W/m2
08:02 66.9 °F /  19.4 °C 60.6 °F /  15.9 °C 29.70in /  1005.6hPa ENE 2.0mph /  3.2km/h 10.0mph /  16.1km/h 80% 0.00in /  0mm 111.0 W/m2
08:09 67.3 °F /  19.6 °C 60.3 °F /  15.7 °C 29.70in /  1005.6hPa ENE 2.0mph /  3.2km/h 5.0mph /  8km/h 78% 0.00in /  0mm 360.0 W/m2
08:14 67.6 °F /  19.8 °C 60.3 °F /  15.7 °C 29.70in /  1005.6hPa East 0.9mph /  1.4km/h 8.0mph /  12.9km/h 77% 0.00in /  0mm 478.0 W/m2
08:21 68.4 °F /  20.2 °C 60.4 °F /  15.8 °C 29.70in /  1005.6hPa ENE 2.9mph /  4.7km/h 8.0mph /  12.9km/h 76% 0.00in /  0mm 413.0 W/m2
08:27 69.1 °F /  20.6 °C 60.4 °F /  15.8 °C 29.70in /  1005.6hPa Calm   6.0mph /  9.7km/h 74% 0.00in /  0mm 425.0 W/m2
08:33 69.6 °F /  20.9 °C 60.6 °F /  15.9 °C 29.70in /  1005.6hPa ENE 6.0mph /  9.7km/h 6.0mph /  9.7km/h 73% 0.00in /  0mm 436.0 W/m2
08:39 70.3 °F /  21.3 °C 60.4 °F /  15.8 °C 29.70in /  1005.6hPa SSE 2.0mph /  3.2km/h 5.0mph /  8km/h 71% 0.00in /  0mm 457.0 W/m2
08:45 71.1 °F /  21.7 °C 60.4 °F /  15.8 °C 29.70in /  1005.6hPa NE 2.9mph /  4.7km/h 7.0mph /  11.3km/h 69% 0.00in /  0mm 478.0 W/m2
08:51 72.1 °F /  22.3 °C 60.6 °F /  15.9 °C 29.70in /  1005.6hPa NNE 2.9mph /  4.7km/h 6.0mph /  9.7km/h 67% 0.00in /  0mm 506.0 W/m2
08:57 72.7 °F /  22.6 °C 60.3 °F /  15.7 °C 29.71in /  1006hPa NNE 2.0mph /  3.2km/h 5.0mph /  8km/h 65% 0.00in /  0mm 545.0 W/m2
09:04 73.4 °F /  23 °C 60.4 °F /  15.8 °C 29.71in /  1006hPa Calm   5.0mph /  8km/h 64% 0.00in /  0mm 294.0 W/m2
09:10 73.8 °F /  23.2 °C 60.4 °F /  15.8 °C 29.71in /  1006hPa ESE 4.9mph /  7.9km/h 9.0mph /  14.5km/h 63% 0.00in /  0mm 176.0 W/m2
09:16 73.4 °F /  23 °C 60.1 °F /  15.6 °C 29.71in /  1006hPa Calm   6.0mph /  9.7km/h 63% 0.00in /  0mm 148.0 W/m2
09:22 73.0 °F /  22.8 °C 59.7 °F /  15.4 °C 29.72in /  1006.3hPa South 0.9mph /  1.4km/h 4.0mph /  6.4km/h 63% 0.00in /  0mm 165.0 W/m2
09:28 72.7 °F /  22.6 °C 59.7 °F /  15.4 °C 29.71in /  1006hPa ESE 4.9mph /  7.9km/h 7.0mph /  11.3km/h 64% 0.00in /  0mm 255.0 W/m2
09:34 73.0 °F /  22.8 °C 60.1 °F /  15.6 °C 29.71in /  1006hPa Calm   6.0mph /  9.7km/h 64% 0.00in /  0mm 798.0 W/m2
09:40 73.8 °F /  23.2 °C 59.0 °F /  15 °C 29.71in /  1006hPa East 4.9mph /  7.9km/h 6.0mph /  9.7km/h 60% 0.00in /  0mm 717.0 W/m2
09:46 74.8 °F /  23.8 °C 59.0 °F /  15 °C 29.71in /  1006hPa NE 2.9mph /  4.7km/h 3.0mph /  4.8km/h 58% 0.00in /  0mm 722.0 W/m2
09:53 75.6 °F /  24.2 °C 59.2 °F /  15.1 °C 29.71in /  1006hPa NE 2.0mph /  3.2km/h 4.0mph /  6.4km/h 57% 0.00in /  0mm 758.0 W/m2
09:59 76.6 °F /  24.8 °C 59.2 °F /  15.1 °C 29.71in /  1006hPa East 2.9mph /  4.7km/h 5.0mph /  8km/h 55% 0.00in /  0mm 854.0 W/m2
10:05 77.7 °F /  25.4 °C 59.2 °F /  15.1 °C 29.71in /  1006hPa SE 0.9mph /  1.4km/h 4.0mph /  6.4km/h 53% 0.00in /  0mm 939.0 W/m2
10:11 78.1 °F /  25.6 °C 59.0 °F /  15 °C 29.70in /  1005.6hPa North 0.9mph /  1.4km/h 3.0mph /  4.8km/h 52% 0.00in /  0mm 983.0 W/m2
10:17 78.6 °F /  25.9 °C 58.5 °F /  14.7 °C 29.70in /  1005.6hPa North 4.9mph /  7.9km/h 7.0mph /  11.3km/h 50% 0.00in /  0mm 909.0 W/m2
10:23 79.5 °F /  26.4 °C 58.6 °F /  14.8 °C 29.70in /  1005.6hPa Calm   3.0mph /  4.8km/h 49% 0.00in /  0mm 853.0 W/m2
10:29 79.5 °F /  26.4 °C 58.1 °F /  14.5 °C 29.70in /  1005.6hPa Calm   2.0mph /  3.2km/h 48% 0.00in /  0mm 185.0 W/m2
10:36 79.0 °F /  26.1 °C 57.6 °F /  14.2 °C 29.70in /  1005.6hPa NNW 0.9mph /  1.4km/h 1.0mph /  1.6km/h 48% 0.00in /  0mm 450.0 W/m2
10:42 78.8 °F /  26 °C 58.1 °F /  14.5 °C 29.70in /  1005.6hPa Calm   4.0mph /  6.4km/h 49% 0.00in /  0mm 202.0 W/m2
10:48 78.4 °F /  25.8 °C 57.7 °F /  14.3 °C 29.69in /  1005.3hPa Calm   1.0mph /  1.6km/h 49% 0.00in /  0mm 265.0 W/m2
10:54 78.6 °F /  25.9 °C 57.9 °F /  14.4 °C 29.69in /  1005.3hPa SSE 0.9mph /  1.4km/h 1.0mph /  1.6km/h 49% 0.00in /  0mm 265.0 W/m2
11:00 79.0 °F /  26.1 °C 57.0 °F /  13.9 °C 29.69in /  1005.3hPa South 2.0mph /  3.2km/h 4.0mph /  6.4km/h 47% 0.00in /  0mm 888.0 W/m2
11:06 78.6 °F /  25.9 °C 57.2 °F /  14 °C 29.68in /  1005hPa WSW 4.0mph /  6.4km/h 5.0mph /  8km/h 48% 0.00in /  0mm 877.0 W/m2
11:12 78.6 °F /  25.9 °C 57.2 °F /  14 °C 29.68in /  1005hPa SSW 2.9mph /  4.7km/h 3.0mph /  4.8km/h 48% 0.00in /  0mm 1097.0 W/m2
11:19 78.6 °F /  25.9 °C 56.7 °F /  13.7 °C 29.68in /  1005hPa East 0.9mph /  1.4km/h 2.0mph /  3.2km/h 47% 0.00in /  0mm 1071.0 W/m2
11:25 80.1 °F /  26.7 °C 57.4 °F /  14.1 °C 29.67in /  1004.6hPa NE 2.9mph /  4.7km/h 4.0mph /  6.4km/h 46% 0.00in /  0mm 1065.0 W/m2
11:31 81.3 °F /  27.4 °C 58.6 °F /  14.8 °C 29.67in /  1004.6hPa Calm   7.0mph /  11.3km/h 46% 0.00in /  0mm 1106.0 W/m2
11:37 81.9 °F /  27.7 °C 58.5 °F /  14.7 °C 29.67in /  1004.6hPa West 4.9mph /  7.9km/h 6.0mph /  9.7km/h 45% 0.00in /  0mm 1179.0 W/m2
11:43 81.9 °F /  27.7 °C 57.7 °F /  14.3 °C 29.67in /  1004.6hPa West 0.9mph /  1.4km/h 3.0mph /  4.8km/h 44% 0.00in /  0mm 1287.0 W/m2
11:49 82.6 °F /  28.1 °C 58.5 °F /  14.7 °C 29.67in /  1004.6hPa WSW 0.9mph /  1.4km/h 2.0mph /  3.2km/h 44% 0.00in /  0mm 471.0 W/m2
11:55 82.8 °F /  28.2 °C 57.4 °F /  14.1 °C 29.67in /  1004.6hPa NNE 2.0mph /  3.2km/h 6.0mph /  9.7km/h 42% 0.00in /  0mm 313.0 W/m2
12:01 82.4 °F /  28 °C 57.7 °F /  14.3 °C 29.67in /  1004.6hPa NNW 4.9mph /  7.9km/h 5.0mph /  8km/h 43% 0.00in /  0mm 325.0 W/m2
12:07 82.2 °F /  27.9 °C 58.1 °F /  14.5 °C 29.66in /  1004.3hPa NE 0.9mph /  1.4km/h 3.0mph /  4.8km/h 44% 0.00in /  0mm 345.0 W/m2
12:14 82.2 °F /  27.9 °C 57.6 °F /  14.2 °C 29.66in /  1004.3hPa Calm   2.0mph /  3.2km/h 43% 0.00in /  0mm 295.0 W/m2
12:20 82.6 °F /  28.1 °C 57.7 °F /  14.3 °C 29.66in /  1004.3hPa SE 2.0mph /  3.2km/h 4.0mph /  6.4km/h 43% 0.00in /  0mm 1292.0 W/m2
12:26 83.3 °F /  28.5 °C 57.7 °F /  14.3 °C 29.66in /  1004.3hPa ENE 2.9mph /  4.7km/h 5.0mph /  8km/h 42% 0.00in /  0mm 1230.0 W/m2
12:32 83.7 °F /  28.7 °C 56.8 °F /  13.8 °C 29.65in /  1003.9hPa ESE 0.9mph /  1.4km/h 3.0mph /  4.8km/h 40% 0.00in /  0mm 309.0 W/m2
12:38 82.6 °F /  28.1 °C 56.5 °F /  13.6 °C 29.65in /  1003.9hPa WSW 2.9mph /  4.7km/h 7.0mph /  11.3km/h 41% 0.00in /  0mm 257.0 W/m2
12:44 81.9 °F /  27.7 °C 56.5 °F /  13.6 °C 29.65in /  1003.9hPa NW 2.0mph /  3.2km/h 3.0mph /  4.8km/h 42% 0.00in /  0mm 244.0 W/m2
12:50 81.7 °F /  27.6 °C 57.0 °F /  13.9 °C 29.65in /  1003.9hPa WSW 0.9mph /  1.4km/h 2.0mph /  3.2km/h 43% 0.00in /  0mm 265.0 W/m2
12:56 81.9 °F /  27.7 °C 57.2 °F /  14 °C 29.64in /  1003.6hPa East 2.0mph /  3.2km/h 3.0mph /  4.8km/h 43% 0.00in /  0mm 1141.0 W/m2
13:03 82.8 °F /  28.2 °C 57.9 °F /  14.4 °C 29.65in /  1003.9hPa WNW 2.9mph /  4.7km/h 7.0mph /  11.3km/h 43% 0.00in /  0mm 1172.0 W/m2
13:09 83.5 °F /  28.6 °C 57.4 °F /  14.1 °C 29.64in /  1003.6hPa North 2.0mph /  3.2km/h 5.0mph /  8km/h 41% 0.00in /  0mm 179.0 W/m2
13:15 83.8 °F /  28.8 °C 57.0 °F /  13.9 °C 29.64in /  1003.6hPa NNW 0.9mph /  1.4km/h 4.0mph /  6.4km/h 40% 0.00in /  0mm 179.0 W/m2
13:21 84.4 °F /  29.1 °C 56.7 °F /  13.7 °C 29.64in /  1003.6hPa NE 2.0mph /  3.2km/h 2.0mph /  3.2km/h 39% 0.00in /  0mm 1185.0 W/m2
13:27 85.5 °F /  29.7 °C 56.3 °F /  13.5 °C 29.64in /  1003.6hPa North 4.9mph /  7.9km/h 5.0mph /  8km/h 37% 0.00in /  0mm 1202.0 W/m2
13:33 86.0 °F /  30 °C 56.7 °F /  13.7 °C 29.63in /  1003.3hPa SSE 2.0mph /  3.2km/h 4.0mph /  6.4km/h 37% 0.00in /  0mm 1185.0 W/m2
13:45 87.3 °F /  30.7 °C 58.6 °F /  14.8 °C 29.63in /  1003.3hPa North 6.0mph /  9.7km/h 10.0mph /  16.1km/h 38% 0.00in /  0mm 1243.0 W/m2
13:52 87.3 °F /  30.7 °C 58.6 °F /  14.8 °C 29.62in /  1002.9hPa North 6.0mph /  9.7km/h 8.0mph /  12.9km/h 38% 0.00in /  0mm 1148.0 W/m2
13:58 87.3 °F /  30.7 °C 59.4 °F /  15.2 °C 29.61in /  1002.6hPa NNW 6.9mph /  11.1km/h 11.0mph /  17.7km/h 39% 0.00in /  0mm 1208.0 W/m2
14:04 87.3 °F /  30.7 °C 58.6 °F /  14.8 °C 29.61in /  1002.6hPa Calm   3.0mph /  4.8km/h 38% 0.00in /  0mm 1197.0 W/m2
14:10 87.6 °F /  30.9 °C 57.4 °F /  14.1 °C 29.61in /  1002.6hPa North 0.9mph /  1.4km/h 3.0mph /  4.8km/h 36% 0.00in /  0mm 211.0 W/m2
14:16 87.4 °F /  30.8 °C 57.9 °F /  14.4 °C 29.61in /  1002.6hPa North 4.0mph /  6.4km/h 6.0mph /  9.7km/h 37% 0.00in /  0mm 156.0 W/m2
14:22 86.5 °F /  30.3 °C 57.9 °F /  14.4 °C 29.60in /  1002.3hPa West 2.9mph /  4.7km/h 3.0mph /  4.8km/h 38% 0.00in /  0mm 163.0 W/m2
14:28 85.8 °F /  29.9 °C 57.2 °F /  14 °C 29.60in /  1002.3hPa Calm   1.0mph /  1.6km/h 38% 0.00in /  0mm 197.0 W/m2
14:34 85.6 °F /  29.8 °C 59.2 °F /  15.1 °C 29.59in /  1001.9hPa Calm   6.0mph /  9.7km/h 41% 0.00in /  0mm 285.0 W/m2
14:40 86.0 °F /  30 °C 58.8 °F /  14.9 °C 29.59in /  1001.9hPa NW 4.9mph /  7.9km/h 13.0mph /  20.9km/h 40% 0.00in /  0mm 209.0 W/m2
14:46 85.6 °F /  29.8 °C 57.9 °F /  14.4 °C 29.59in /  1001.9hPa North 4.9mph /  7.9km/h 5.0mph /  8km/h 39% 0.00in /  0mm 359.0 W/m2
14:52 85.8 °F /  29.9 °C 58.6 °F /  14.8 °C 29.59in /  1001.9hPa NNW 2.9mph /  4.7km/h 8.0mph /  12.9km/h 40% 0.00in /  0mm 279.0 W/m2
14:58 85.8 °F /  29.9 °C 58.6 °F /  14.8 °C 29.59in /  1001.9hPa Calm   4.0mph /  6.4km/h 40% 0.00in /  0mm 295.0 W/m2
15:04 85.5 °F /  29.7 °C 58.5 °F /  14.7 °C 29.58in /  1001.6hPa Calm   3.0mph /  4.8km/h 40% 0.00in /  0mm 1202.0 W/m2
15:10 86.4 °F /  30.2 °C 57.7 °F /  14.3 °C 29.58in /  1001.6hPa NNW 2.0mph /  3.2km/h 5.0mph /  8km/h 38% 0.00in /  0mm 1134.0 W/m2
15:17 86.9 °F /  30.5 °C 59.0 °F /  15 °C 29.58in /  1001.6hPa ESE 2.9mph /  4.7km/h 6.0mph /  9.7km/h 39% 0.00in /  0mm 193.0 W/m2
15:23 86.0 °F /  30 °C 60.3 °F /  15.7 °C 29.57in /  1001.2hPa NNE 4.0mph /  6.4km/h 5.0mph /  8km/h 42% 0.00in /  0mm 163.0 W/m2
15:29 85.3 °F /  29.6 °C 59.5 °F /  15.3 °C 29.56in /  1000.9hPa NE 2.9mph /  4.7km/h 4.0mph /  6.4km/h 42% 0.00in /  0mm 134.0 W/m2
15:35 84.7 °F /  29.3 °C 60.4 °F /  15.8 °C 29.56in /  1000.9hPa Calm   4.0mph /  6.4km/h 44% 0.00in /  0mm 121.0 W/m2
15:41 84.0 °F /  28.9 °C 59.7 °F /  15.4 °C 29.57in /  1001.2hPa Calm   5.0mph /  8km/h 44% 0.00in /  0mm 93.0 W/m2
15:47 83.1 °F /  28.4 °C 64.8 °F /  18.2 °C 29.57in /  1001.2hPa NNW 6.0mph /  9.7km/h 9.0mph /  14.5km/h 54% 0.00in /  0mm 47.0 W/m2
15:55 79.0 °F /  26.1 °C 64.4 °F /  18 °C 29.57in /  1001.2hPa NE 10.1mph /  16.3km/h 15.0mph /  24.1km/h 61% 0.04in /  1.02mm 33.0 W/m2
16:01 75.4 °F /  24.1 °C 63.7 °F /  17.6 °C 29.57in /  1001.2hPa NE 2.9mph /  4.7km/h 10.0mph /  16.1km/h 67% 0.05in /  1.27mm 25.0 W/m2
16:08 72.0 °F /  22.2 °C 62.1 °F /  16.7 °C 29.56in /  1000.9hPa ENE 2.9mph /  4.7km/h 13.0mph /  20.9km/h 71% 0.09in /  2.29mm 28.0 W/m2
16:14 70.0 °F /  21.1 °C 61.0 °F /  16.1 °C 29.56in /  1000.9hPa NE 4.9mph /  7.9km/h 8.0mph /  12.9km/h 73% 0.11in /  2.79mm 30.0 W/m2
16:20 69.1 °F /  20.6 °C 61.9 °F /  16.6 °C 29.58in /  1001.6hPa Calm   8.0mph /  12.9km/h 78% 0.11in /  2.79mm 28.0 W/m2
16:26 68.5 °F /  20.3 °C 62.1 °F /  16.7 °C 29.60in /  1002.3hPa NE 6.0mph /  9.7km/h 9.0mph /  14.5km/h 80% 0.11in /  2.79mm 21.0 W/m2
16:32 68.4 °F /  20.2 °C 61.2 °F /  16.2 °C 29.61in /  1002.6hPa NE 4.9mph /  7.9km/h 11.0mph /  17.7km/h 78% 0.12in /  3.05mm 18.0 W/m2
16:38 68.4 °F /  20.2 °C 61.5 °F /  16.4 °C 29.61in /  1002.6hPa ENE 6.0mph /  9.7km/h 15.0mph /  24.1km/h 79% 0.12in /  3.05mm 14.0 W/m2
16:44 67.6 °F /  19.8 °C 61.5 °F /  16.4 °C 29.62in /  1002.9hPa East 2.9mph /  4.7km/h 11.0mph /  17.7km/h 81% 0.12in /  3.05mm 12.0 W/m2
16:50 66.7 °F /  19.3 °C 61.0 °F /  16.1 °C 29.63in /  1003.3hPa NE 8.1mph /  13km/h 11.0mph /  17.7km/h 82% 0.11in /  2.79mm 12.0 W/m2
16:57 66.0 °F /  18.9 °C 61.0 °F /  16.1 °C 29.63in /  1003.3hPa ESE 2.9mph /  4.7km/h 10.0mph /  16.1km/h 84% 0.09in /  2.29mm 14.0 W/m2
17:03 65.7 °F /  18.7 °C 61.0 °F /  16.1 °C 29.63in /  1003.3hPa NNW 6.0mph /  9.7km/h 11.0mph /  17.7km/h 85% 0.05in /  1.27mm 11.0 W/m2
17:09 65.1 °F /  18.4 °C 60.8 °F /  16 °C 29.63in /  1003.3hPa South 2.0mph /  3.2km/h 8.0mph /  12.9km/h 86% 0.03in /  0.76mm 12.0 W/m2
17:15 65.1 °F /  18.4 °C 60.8 °F /  16 °C 29.63in /  1003.3hPa Calm   3.0mph /  4.8km/h 86% 0.02in /  0.51mm 14.0 W/m2
17:21 65.1 °F /  18.4 °C 61.2 °F /  16.2 °C 29.62in /  1002.9hPa East 4.0mph /  6.4km/h 5.0mph /  8km/h 87% 0.02in /  0.51mm 12.0 W/m2
17:28 65.1 °F /  18.4 °C 60.8 °F /  16 °C 29.61in /  1002.6hPa SE 4.0mph /  6.4km/h 8.0mph /  12.9km/h 86% 0.02in /  0.51mm 11.0 W/m2
17:33 65.3 °F /  18.5 °C 61.0 °F /  16.1 °C 29.63in /  1003.3hPa NE 4.9mph /  7.9km/h 12.0mph /  19.3km/h 86% 0.02in /  0.51mm 11.0 W/m2
17:39 65.5 °F /  18.6 °C 61.5 °F /  16.4 °C 29.63in /  1003.3hPa ENE 8.1mph /  13km/h 14.0mph /  22.5km/h 87% 0.02in /  0.51mm 9.0 W/m2
17:45 65.5 °F /  18.6 °C 61.9 °F /  16.6 °C 29.61in /  1002.6hPa NNE 4.9mph /  7.9km/h 13.0mph /  20.9km/h 88% 0.02in /  0.51mm 7.0 W/m2
17:51 65.5 °F /  18.6 °C 61.5 °F /  16.4 °C 29.60in /  1002.3hPa East 16.1mph /  25.9km/h 24.0mph /  38.6km/h 87% 0.01in /  0.25mm 7.0 W/m2
17:57 65.5 °F /  18.6 °C 61.5 °F /  16.4 °C 29.59in /  1001.9hPa ENE 8.9mph /  14.3km/h 16.0mph /  25.7km/h 87% 0.00in /  0mm 5.0 W/m2
18:03 65.5 °F /  18.6 °C 61.2 °F /  16.2 °C 29.59in /  1001.9hPa SSE 6.0mph /  9.7km/h 15.0mph /  24.1km/h 86% 0.00in /  0mm 5.0 W/m2
18:10 65.5 °F /  18.6 °C 61.2 °F /  16.2 °C 29.59in /  1001.9hPa ENE 10.1mph /  16.3km/h 15.0mph /  24.1km/h 86% 0.00in /  0mm 5.0 W/m2
18:16 65.5 °F /  18.6 °C 61.2 °F /  16.2 °C 29.61in /  1002.6hPa SSE 4.0mph /  6.4km/h 15.0mph /  24.1km/h 86% 0.00in /  0mm 5.0 W/m2
18:22 65.5 °F /  18.6 °C 61.2 °F /  16.2 °C 29.62in /  1002.9hPa ESE 8.1mph /  13km/h 15.0mph /  24.1km/h 86% 0.00in /  0mm 0.0 W/m2
18:28 65.5 °F /  18.6 °C 61.2 °F /  16.2 °C 29.64in /  1003.6hPa SSE 8.1mph /  13km/h 13.0mph /  20.9km/h 86% 0.00in /  0mm 0.0 W/m2
18:34 65.5 °F /  18.6 °C 60.8 °F /  16 °C 29.64in /  1003.6hPa ESE 2.9mph /  4.7km/h 13.0mph /  20.9km/h 85% 0.00in /  0mm 0.0 W/m2
18:40 65.5 °F /  18.6 °C 61.2 °F /  16.2 °C 29.64in /  1003.6hPa NNE 2.9mph /  4.7km/h 7.0mph /  11.3km/h 86% 0.00in /  0mm 0.0 W/m2
18:46 65.3 °F /  18.5 °C 60.6 °F /  15.9 °C 29.64in /  1003.6hPa East 8.9mph /  14.3km/h 9.0mph /  14.5km/h 85% 0.00in /  0mm 0.0 W/m2
18:53 65.1 °F /  18.4 °C 60.1 °F /  15.6 °C 29.64in /  1003.6hPa NE 6.0mph /  9.7km/h 15.0mph /  24.1km/h 84% 0.00in /  0mm 0.0 W/m2
18:59 64.9 °F /  18.3 °C 59.7 °F /  15.4 °C 29.63in /  1003.3hPa ENE 6.0mph /  9.7km/h 9.0mph /  14.5km/h 83% 0.00in /  0mm 0.0 W/m2
19:05 64.8 °F /  18.2 °C 59.5 °F /  15.3 °C 29.64in /  1003.6hPa NE 6.9mph /  11.1km/h 10.0mph /  16.1km/h 83% 0.00in /  0mm 0.0 W/m2
19:11 64.8 °F /  18.2 °C 59.5 °F /  15.3 °C 29.64in /  1003.6hPa ENE 8.1mph /  13km/h 8.1mph /  13km/h 83% 0.00in /  0mm 0.0 W/m2
19:17 64.8 °F /  18.2 °C 59.9 °F /  15.5 °C 29.64in /  1003.6hPa North 6.9mph /  11.1km/h 12.0mph /  19.3km/h 84% 0.00in /  0mm 0.0 W/m2
19:23 64.6 °F /  18.1 °C 59.7 °F /  15.4 °C 29.65in /  1003.9hPa WSW 0.9mph /  1.4km/h 13.0mph /  20.9km/h 84% 0.00in /  0mm 0.0 W/m2
19:29 64.6 °F /  18.1 °C 59.7 °F /  15.4 °C 29.66in /  1004.3hPa North 6.9mph /  11.1km/h 14.0mph /  22.5km/h 84% 0.00in /  0mm 0.0 W/m2
19:35 64.6 °F /  18.1 °C 59.4 °F /  15.2 °C 29.67in /  1004.6hPa NE 4.0mph /  6.4km/h 9.0mph /  14.5km/h 83% 0.00in /  0mm 0.0 W/m2
19:41 64.6 °F /  18.1 °C 59.4 °F /  15.2 °C 29.69in /  1005.3hPa Calm   6.0mph /  9.7km/h 83% 0.00in /  0mm 0.0 W/m2
19:48 64.6 °F /  18.1 °C 59.4 °F /  15.2 °C 29.70in /  1005.6hPa North 2.0mph /  3.2km/h 7.0mph /  11.3km/h 83% 0.00in /  0mm 0.0 W/m2
19:54 64.6 °F /  18.1 °C 59.4 °F /  15.2 °C 29.71in /  1006hPa NNE 2.9mph /  4.7km/h 6.0mph /  9.7km/h 83% 0.00in /  0mm 0.0 W/m2
20:00 64.6 °F /  18.1 °C 59.4 °F /  15.2 °C 29.71in /  1006hPa SE 2.9mph /  4.7km/h 8.0mph /  12.9km/h 83% 0.00in /  0mm 0.0 W/m2
20:06 64.6 °F /  18.1 °C 59.4 °F /  15.2 °C 29.72in /  1006.3hPa ESE 4.0mph /  6.4km/h 6.0mph /  9.7km/h 83% 0.00in /  0mm 0.0 W/m2
20:12 64.8 °F /  18.2 °C 59.5 °F /  15.3 °C 29.72in /  1006.3hPa SE 6.0mph /  9.7km/h 7.0mph /  11.3km/h 83% 0.00in /  0mm 0.0 W/m2
20:18 64.8 °F /  18.2 °C 59.5 °F /  15.3 °C 29.72in /  1006.3hPa East 4.9mph /  7.9km/h 6.0mph /  9.7km/h 83% 0.00in /  0mm 0.0 W/m2
20:24 64.8 °F /  18.2 °C 59.5 °F /  15.3 °C 29.73in /  1006.7hPa East 4.9mph /  7.9km/h 7.0mph /  11.3km/h 83% 0.00in /  0mm 0.0 W/m2
20:31 64.8 °F /  18.2 °C 59.5 °F /  15.3 °C 29.73in /  1006.7hPa Calm   6.0mph /  9.7km/h 83% 0.00in /  0mm 0.0 W/m2
20:37 64.8 °F /  18.2 °C 59.2 °F /  15.1 °C 29.73in /  1006.7hPa SE 4.0mph /  6.4km/h 4.0mph /  6.4km/h 82% 0.00in /  0mm 0.0 W/m2
20:43 64.9 °F /  18.3 °C 59.4 °F /  15.2 °C 29.73in /  1006.7hPa SE 2.9mph /  4.7km/h 3.0mph /  4.8km/h 82% 0.00in /  0mm 0.0 W/m2
20:49 64.9 °F /  18.3 °C 59.0 °F /  15 °C 29.73in /  1006.7hPa SE 0.9mph /  1.4km/h 7.0mph /  11.3km/h 81% 0.00in /  0mm 0.0 W/m2
20:55 64.9 °F /  18.3 °C 59.4 °F /  15.2 °C 29.73in /  1006.7hPa Calm   1.0mph /  1.6km/h 82% 0.00in /  0mm 0.0 W/m2
21:01 64.9 °F /  18.3 °C 59.0 °F /  15 °C 29.74in /  1007hPa East 2.0mph /  3.2km/h 3.0mph /  4.8km/h 81% 0.00in /  0mm 0.0 W/m2
21:07 64.9 °F /  18.3 °C 59.0 °F /  15 °C 29.74in /  1007hPa Calm   2.0mph /  3.2km/h 81% 0.00in /  0mm 0.0 W/m2
21:13 64.9 °F /  18.3 °C 59.0 °F /  15 °C 29.75in /  1007.3hPa Calm     81% 0.00in /  0mm 0.0 W/m2
21:20 64.9 °F /  18.3 °C 59.0 °F /  15 °C 29.75in /  1007.3hPa Calm     81% 0.00in /  0mm 0.0 W/m2
21:26 64.9 °F /  18.3 °C 58.6 °F /  14.8 °C 29.75in /  1007.3hPa Calm     80% 0.00in /  0mm 0.0 W/m2
21:32 65.1 °F /  18.4 °C 58.8 °F /  14.9 °C 29.75in /  1007.3hPa Calm   2.0mph /  3.2km/h 80% 0.00in /  0mm 0.0 W/m2
21:38 65.3 °F /  18.5 °C 59.4 °F /  15.2 °C 29.74in /  1007hPa Calm   1.0mph /  1.6km/h 81% 0.00in /  0mm 0.0 W/m2
21:44 65.3 °F /  18.5 °C 59.0 °F /  15 °C 29.74in /  1007hPa Calm   1.0mph /  1.6km/h 80% 0.00in /  0mm 0.0 W/m2
21:50 65.5 °F /  18.6 °C 59.2 °F /  15.1 °C 29.74in /  1007hPa Calm     80% 0.00in /  0mm 0.0 W/m2
21:56 65.5 °F /  18.6 °C 59.2 °F /  15.1 °C 29.74in /  1007hPa Calm     80% 0.00in /  0mm 0.0 W/m2
22:03 65.7 °F /  18.7 °C 59.7 °F /  15.4 °C 29.74in /  1007hPa NE 0.9mph /  1.4km/h 1.0mph /  1.6km/h 81% 0.00in /  0mm 0.0 W/m2
22:09 65.7 °F /  18.7 °C 60.1 °F /  15.6 °C 29.74in /  1007hPa NE 0.9mph /  1.4km/h 2.0mph /  3.2km/h 82% 0.00in /  0mm 0.0 W/m2
22:15 65.8 °F /  18.8 °C 59.9 °F /  15.5 °C 29.74in /  1007hPa NE 0.9mph /  1.4km/h 2.0mph /  3.2km/h 81% 0.00in /  0mm 0.0 W/m2
22:21 65.8 °F /  18.8 °C 59.9 °F /  15.5 °C 29.74in /  1007hPa Calm     81% 0.00in /  0mm 0.0 W/m2
22:27 65.8 °F /  18.8 °C 59.9 °F /  15.5 °C 29.74in /  1007hPa Calm     81% 0.00in /  0mm 0.0 W/m2
22:33 65.8 °F /  18.8 °C 59.9 °F /  15.5 °C 29.74in /  1007hPa Calm   1.0mph /  1.6km/h 81% 0.00in /  0mm 0.0 W/m2
22:39 65.8 °F /  18.8 °C 59.9 °F /  15.5 °C 29.75in /  1007.3hPa Calm   2.0mph /  3.2km/h 81% 0.00in /  0mm 0.0 W/m2
22:45 65.8 °F /  18.8 °C 60.3 °F /  15.7 °C 29.75in /  1007.3hPa Calm   2.0mph /  3.2km/h 82% 0.00in /  0mm 0.0 W/m2
22:51 65.8 °F /  18.8 °C 60.3 °F /  15.7 °C 29.75in /  1007.3hPa East 0.9mph /  1.4km/h 3.0mph /  4.8km/h 82% 0.00in /  0mm 0.0 W/m2
22:57 66.0 °F /  18.9 °C 60.6 °F /  15.9 °C 29.75in /  1007.3hPa East 0.9mph /  1.4km/h 2.0mph /  3.2km/h 83% 0.00in /  0mm 0.0 W/m2
23:03 65.8 °F /  18.8 °C 60.3 °F /  15.7 °C 29.75in /  1007.3hPa Calm   1.0mph /  1.6km/h 82% 0.00in /  0mm 0.0 W/m2
23:09 65.8 °F /  18.8 °C 60.3 °F /  15.7 °C 29.74in /  1007hPa Calm   1.0mph /  1.6km/h 82% 0.00in /  0mm 0.0 W/m2
23:15 65.8 °F /  18.8 °C 59.9 °F /  15.5 °C 29.75in /  1007.3hPa Calm     81% 0.00in /  0mm 0.0 W/m2
23:21 65.8 °F /  18.8 °C 59.9 °F /  15.5 °C 29.74in /  1007hPa East 0.9mph /  1.4km/h 3.0mph /  4.8km/h 81% 0.00in /  0mm 0.0 W/m2
23:27 66.0 °F /  18.9 °C 60.1 °F /  15.6 °C 29.74in /  1007hPa SSW 0.9mph /  1.4km/h 3.0mph /  4.8km/h 81% 0.00in /  0mm 0.0 W/m2
23:34 66.4 °F /  19.1 °C 60.1 °F /  15.6 °C 29.74in /  1007hPa ESE 4.9mph /  7.9km/h 10.0mph /  16.1km/h 80% 0.00in /  0mm 0.0 W/m2
23:40 66.7 °F /  19.3 °C 60.4 °F /  15.8 °C 29.74in /  1007hPa SSE 2.0mph /  3.2km/h 6.0mph /  9.7km/h 80% 0.00in /  0mm 0.0 W/m2
23:46 66.9 °F /  19.4 °C 60.3 °F /  15.7 °C 29.73in /  1006.7hPa South 2.0mph /  3.2km/h 10.0mph /  16.1km/h 79% 0.00in /  0mm 0.0 W/m2
23:52 66.9 °F /  19.4 °C 59.9 °F /  15.5 °C 29.73in /  1006.7hPa SSE 6.9mph /  11.1km/h 9.0mph /  14.5km/h 78% 0.00in /  0mm 0.0 W/m2
23:58 66.9 °F /  19.4 °C 59.9 °F /  15.5 °C 29.73in /  1006.7hPa SSE 4.9mph /  7.9km/h 9.0mph /  14.5km/h 78% 0.00in /  0mm 0.0 W/m2
Olympia, Windhoek, Namibia
Compliments of Weather Underground - 3 mb